Time,TemperatureF,DewpointF,PressureIn,WindDirection,WindDirectionDegrees,WindSpeedMPH,WindSpeedGustMPH,Humidity,HourlyPrecipIn,Conditions,Clouds,dailyrainin,SoftwareType,DateUTC
2013-03-10 00:00:00,36.5,29.0,30.04,NW,311,0.0,0.0,74,0.00,,,0.00,LWC V2.11 B50,2013-03-10 07:00:00,
2013-03-10 00:05:00,36.6,29.1,30.04,NW,311,0.0,0.0,74,0.00,,,0.00,LWC V2.11 B50,2013-03-10 07:05:00,
2013-03-10 00:10:00,36.6,29.1,30.04,NW,311,0.0,0.0,74,0.00,,,0.00,LWC V2.11 B50,2013-03-10 07:10:00,
2013-03-10 00:11:00,36.5,29.0,30.04,NW,311,0.0,0.0,74,0.00,,,0.00,LWC V2.11 B50,2013-03-10 07:11:00,
2013-03-10 00:16:00,36.4,28.9,30.04,NW,311,0.0,0.0,74,0.00,,,0.00,LWC V2.11 B50,2013-03-10 07:16:00,
2013-03-10 00:21:00,36.2,29.1,30.04,NW,311,0.0,0.0,75,0.00,,,0.00,LWC V2.11 B50,2013-03-10 07:21:00,
2013-03-10 00:26:00,36.1,29.0,30.04,NW,311,0.0,0.0,75,0.00,,,0.00,LWC V2.11 B50,2013-03-10 07:26:00,
2013-03-10 00:31:00,35.9,28.8,30.04,NW,311,0.0,0.0,75,0.00,,,0.00,LWC V2.11 B50,2013-03-10 07:31:00,
2013-03-10 00:36:00,35.6,28.8,30.04,NW,311,0.0,0.0,76,0.00,,,0.00,LWC V2.11 B50,2013-03-10 07:36:00,
2013-03-10 00:41:00,35.4,28.6,30.05,NW,311,0.0,0.0,76,0.00,,,0.00,LWC V2.11 B50,2013-03-10 07:41:00,
2013-03-10 00:46:00,35.3,28.8,30.05,NW,311,0.0,0.0,77,0.00,,,0.00,LWC V2.11 B50,2013-03-10 07:46:00,
2013-03-10 00:51:00,35.1,28.6,30.05,NW,311,0.0,0.0,77,0.00,,,0.00,LWC V2.11 B50,2013-03-10 07:51:00,
2013-03-10 00:56:00,34.9,28.4,30.05,NW,311,0.0,0.0,77,0.00,,,0.00,LWC V2.11 B50,2013-03-10 07:56:00,
2013-03-10 01:01:00,34.6,28.1,30.05,NW,311,0.0,0.0,77,0.00,,,0.00,LWC V2.11 B50,2013-03-10 08:01:00,
2013-03-10 01:06:00,34.3,27.9,30.05,NW,311,0.0,0.0,77,0.00,,,0.00,LWC V2.11 B50,2013-03-10 08:06:00,
2013-03-10 01:11:00,34.0,27.9,30.05,NW,311,0.0,0.0,78,0.00,,,0.00,LWC V2.11 B50,2013-03-10 08:11:00,
2013-03-10 01:16:00,33.7,27.6,30.05,NW,311,0.0,0.0,78,0.00,,,0.00,LWC V2.11 B50,2013-03-10 08:16:00,
2013-03-10 01:21:00,33.5,27.7,30.05,NW,311,0.0,0.0,79,0.00,,,0.00,LWC V2.11 B50,2013-03-10 08:21:00,
2013-03-10 01:26:00,33.3,27.5,30.05,NW,311,0.0,0.0,79,0.00,,,0.00,LWC V2.11 B50,2013-03-10 08:26:00,
2013-03-10 01:31:00,33.2,27.4,30.05,NW,311,0.0,0.0,79,0.00,,,0.00,LWC V2.11 B50,2013-03-10 08:31:00,
2013-03-10 01:36:00,32.9,27.1,30.06,NW,311,0.0,0.0,79,0.00,,,0.00,LWC V2.11 B50,2013-03-10 08:36:00,
2013-03-10 01:41:00,32.8,27.0,30.06,NW,311,0.0,0.0,79,0.00,,,0.00,LWC V2.11 B50,2013-03-10 08:41:00,
2013-03-10 01:46:00,32.6,27.1,30.06,NW,311,0.0,0.0,80,0.00,,,0.00,LWC V2.11 B50,2013-03-10 08:46:00,
2013-03-10 01:51:00,32.6,27.1,30.06,NW,311,0.0,0.0,80,0.00,,,0.00,LWC V2.11 B50,2013-03-10 08:51:00,
2013-03-10 01:56:00,32.6,27.1,30.06,NW,311,0.0,0.0,80,0.00,,,0.00,LWC V2.11 B50,2013-03-10 08:56:00,
2013-03-10 03:04:00,32.3,26.8,30.06,NW,311,0.0,0.0,80,0.00,,,0.00,LWC V2.11 B50,2013-03-10 09:04:00,
2013-03-10 03:08:00,32.3,26.8,30.06,NW,311,0.0,0.0,80,0.00,,,0.00,LWC V2.11 B50,2013-03-10 09:08:00,
2013-03-10 03:13:00,32.3,26.8,30.05,NW,311,0.0,0.0,80,0.00,,,0.00,LWC V2.11 B50,2013-03-10 09:13:00,
2013-03-10 03:18:00,32.4,26.9,30.05,NW,311,0.0,0.0,80,0.00,,,0.00,LWC V2.11 B50,2013-03-10 09:18:00,
2013-03-10 03:23:00,32.4,27.2,30.05,NW,311,0.0,0.0,81,0.00,,,0.00,LWC V2.11 B50,2013-03-10 09:23:00,
2013-03-10 03:28:00,32.5,27.3,30.05,NW,311,0.0,0.0,81,0.00,,,0.00,LWC V2.11 B50,2013-03-10 09:28:00,
2013-03-10 03:33:00,32.5,27.3,30.05,NW,311,0.0,0.0,81,0.00,,,0.00,LWC V2.11 B50,2013-03-10 09:33:00,
2013-03-10 03:38:00,32.5,27.3,30.05,NW,311,0.0,0.0,81,0.00,,,0.00,LWC V2.11 B50,2013-03-10 09:38:00,
2013-03-10 03:43:00,32.6,27.1,30.05,NW,311,0.0,0.0,80,0.00,,,0.00,LWC V2.11 B50,2013-03-10 09:43:00,
2013-03-10 03:48:00,32.8,27.3,30.05,NW,311,0.0,0.0,80,0.00,,,0.00,LWC V2.11 B50,2013-03-10 09:48:00,
2013-03-10 03:53:00,32.9,27.4,30.05,NW,310,0.0,0.0,80,0.00,,,0.00,LWC V2.11 B50,2013-03-10 09:53:00,
2013-03-10 03:58:00,33.0,27.5,30.06,NW,310,0.0,0.0,80,0.00,,,0.00,LWC V2.11 B50,2013-03-10 09:58:00,
2013-03-10 04:03:00,32.9,27.4,30.06,NW,310,0.0,0.0,80,0.00,,,0.00,LWC V2.11 B50,2013-03-10 10:03:00,
2013-03-10 04:08:00,32.9,27.1,30.06,NW,310,0.0,0.0,79,0.00,,,0.00,LWC V2.11 B50,2013-03-10 10:08:00,
2013-03-10 04:13:00,32.8,27.0,30.06,West,275,1.0,2.0,79,0.00,,,0.00,LWC V2.11 B50,2013-03-10 10:13:00,
2013-03-10 04:18:00,32.9,27.4,30.06,West,277,0.0,1.0,80,0.00,,,0.00,LWC V2.11 B50,2013-03-10 10:18:00,
2013-03-10 04:23:00,33.0,27.5,30.06,West,277,0.0,1.0,80,0.00,,,0.00,LWC V2.11 B50,2013-03-10 10:23:00,
2013-03-10 04:28:00,33.3,27.8,30.07,West,277,0.0,0.0,80,0.00,,,0.00,LWC V2.11 B50,2013-03-10 10:28:00,
2013-03-10 04:33:00,33.4,27.6,30.07,NW,315,0.0,0.0,79,0.00,,,0.00,LWC V2.11 B50,2013-03-10 10:33:00,
2013-03-10 04:38:00,33.6,27.8,30.07,NW,316,0.0,2.0,79,0.00,,,0.00,LWC V2.11 B50,2013-03-10 10:38:00,
2013-03-10 04:43:00,33.9,28.1,30.07,NW,316,0.0,2.0,79,0.00,,,0.00,LWC V2.11 B50,2013-03-10 10:43:00,
2013-03-10 04:48:00,33.9,27.8,30.07,NW,316,0.0,0.0,78,0.00,,,0.00,LWC V2.11 B50,2013-03-10 10:48:00,
2013-03-10 04:53:00,33.8,27.7,30.08,NW,316,0.0,0.0,78,0.00,,,0.00,LWC V2.11 B50,2013-03-10 10:53:00,
2013-03-10 04:58:00,33.7,27.6,30.08,WNW,302,1.0,1.0,78,0.00,,,0.00,LWC V2.11 B50,2013-03-10 10:58:00,
2013-03-10 05:03:00,33.7,27.9,30.08,WNW,300,0.0,1.0,79,0.00,,,0.00,LWC V2.11 B50,2013-03-10 11:03:00,
2013-03-10 05:08:00,33.7,27.9,30.08,WNW,300,0.0,0.0,79,0.00,,,0.00,LWC V2.11 B50,2013-03-10 11:08:00,
2013-03-10 05:13:00,33.7,27.9,30.08,WNW,300,0.0,0.0,79,0.00,,,0.00,LWC V2.11 B50,2013-03-10 11:13:00,
2013-03-10 05:18:00,33.6,27.5,30.08,WNW,300,0.0,0.0,78,0.00,,,0.00,LWC V2.11 B50,2013-03-10 11:18:00,
2013-03-10 05:23:00,33.4,27.6,30.08,WNW,300,0.0,0.0,79,0.00,,,0.00,LWC V2.11 B50,2013-03-10 11:23:00,
2013-03-10 05:28:00,33.2,27.4,30.08,WNW,300,0.0,0.0,79,0.00,,,0.00,LWC V2.11 B50,2013-03-10 11:28:00,
2013-03-10 05:33:00,32.8,27.0,30.08,NE,35,0.0,0.0,79,0.00,,,0.00,LWC V2.11 B50,2013-03-10 11:33:00,
2013-03-10 05:38:00,32.5,26.7,30.09,NE,35,0.0,0.0,79,0.00,,,0.00,LWC V2.11 B50,2013-03-10 11:38:00,
2013-03-10 05:43:00,32.3,26.5,30.09,NE,35,0.0,0.0,79,0.00,,,0.00,LWC V2.11 B50,2013-03-10 11:43:00,
2013-03-10 05:48:00,31.9,26.4,30.09,NE,35,0.0,0.0,80,0.00,,,0.00,LWC V2.11 B50,2013-03-10 11:48:00,
2013-03-10 05:53:00,31.6,26.5,30.09,NE,35,0.0,0.0,81,0.00,,,0.00,LWC V2.11 B50,2013-03-10 11:53:00,
2013-03-10 05:58:00,31.5,26.4,30.10,NE,35,0.0,0.0,81,0.00,,,0.00,LWC V2.11 B50,2013-03-10 11:58:00,
2013-03-10 06:03:00,31.4,26.3,30.10,NE,35,0.0,0.0,81,0.00,,,0.00,LWC V2.11 B50,2013-03-10 12:03:00,
2013-03-10 06:08:00,31.4,26.6,30.10,NW,321,0.0,1.0,82,0.00,,,0.00,LWC V2.11 B50,2013-03-10 12:08:00,
2013-03-10 06:13:00,31.5,26.7,30.10,NW,316,0.0,0.0,82,0.00,,,0.00,LWC V2.11 B50,2013-03-10 12:13:00,
2013-03-10 06:18:00,31.5,26.7,30.10,NW,318,0.0,0.0,82,0.00,,,0.00,LWC V2.11 B50,2013-03-10 12:18:00,
2013-03-10 06:23:00,31.5,26.7,30.10,NW,318,0.0,0.0,82,0.00,,,0.00,LWC V2.11 B50,2013-03-10 12:23:00,
2013-03-10 06:28:00,31.6,26.7,30.10,NW,318,0.0,0.0,82,0.00,,,0.00,LWC V2.11 B50,2013-03-10 12:28:00,
2013-03-10 06:33:00,31.7,26.8,30.10,NW,318,0.0,1.0,82,0.00,,,0.00,LWC V2.11 B50,2013-03-10 12:33:00,
2013-03-10 06:38:00,32.0,27.1,30.11,NW,318,0.0,0.0,82,0.00,,,0.00,LWC V2.11 B50,2013-03-10 12:38:00,
2013-03-10 06:43:00,32.2,27.0,30.12,NW,318,0.0,0.0,81,0.00,,,0.00,LWC V2.11 B50,2013-03-10 12:43:00,
2013-03-10 06:48:00,32.3,27.1,30.12,NW,318,0.0,0.0,81,0.00,,,0.00,LWC V2.11 B50,2013-03-10 12:48:00,
2013-03-10 06:53:00,32.3,26.8,30.12,NW,319,0.0,0.0,80,0.00,,,0.00,LWC V2.11 B50,2013-03-10 12:53:00,
2013-03-10 06:58:00,32.3,26.8,30.12,NW,319,0.0,0.0,80,0.00,,,0.00,LWC V2.11 B50,2013-03-10 12:58:00,
2013-03-10 07:03:00,32.2,26.7,30.12,NW,319,0.0,0.0,80,0.00,,,0.00,LWC V2.11 B50,2013-03-10 13:03:00,
2013-03-10 07:08:00,32.2,26.7,30.13,NW,319,0.0,0.0,80,0.00,,,0.00,LWC V2.11 B50,2013-03-10 13:08:00,
2013-03-10 07:13:00,32.1,26.6,30.13,NW,319,0.0,0.0,80,0.00,,,0.00,LWC V2.11 B50,2013-03-10 13:13:00,
2013-03-10 07:18:00,32.1,26.9,30.13,NW,319,0.0,0.0,81,0.00,,,0.00,LWC V2.11 B50,2013-03-10 13:18:00,
2013-03-10 07:23:00,32.1,26.9,30.14,NW,319,0.0,0.0,81,0.00,,,0.00,LWC V2.11 B50,2013-03-10 13:23:00,
2013-03-10 07:28:00,32.1,26.9,30.14,NW,321,0.0,0.0,81,0.00,,,0.00,LWC V2.11 B50,2013-03-10 13:28:00,
2013-03-10 07:33:00,32.1,26.9,30.14,NW,312,1.0,1.0,81,0.00,,,0.00,LWC V2.11 B50,2013-03-10 13:33:00,
2013-03-10 07:38:00,32.2,27.0,30.15,NW,319,0.0,0.0,81,0.00,,,0.00,LWC V2.11 B50,2013-03-10 13:38:00,
2013-03-10 07:43:00,32.3,27.1,30.15,NW,315,0.0,1.0,81,0.00,,,0.00,LWC V2.11 B50,2013-03-10 13:43:00,
2013-03-10 07:48:00,32.4,27.2,30.15,NW,321,0.0,1.0,81,0.00,,,0.00,LWC V2.11 B50,2013-03-10 13:48:00,
2013-03-10 07:53:00,32.5,27.3,30.15,NNW,327,0.0,0.0,81,0.00,,,0.00,LWC V2.11 B50,2013-03-10 13:53:00,
2013-03-10 07:58:00,32.5,27.3,30.15,NNW,329,0.0,0.0,81,0.00,,,0.00,LWC V2.11 B50,2013-03-10 13:58:00,
2013-03-10 08:03:00,32.6,27.4,30.16,NNW,328,0.0,1.0,81,0.00,,,0.00,LWC V2.11 B50,2013-03-10 14:03:00,
2013-03-10 08:08:00,32.8,27.6,30.16,NW,310,0.0,0.0,81,0.00,,,0.00,LWC V2.11 B50,2013-03-10 14:08:00,
2013-03-10 08:13:00,32.9,27.4,30.16,NW,311,0.0,0.0,80,0.00,,,0.00,LWC V2.11 B50,2013-03-10 14:13:00,
2013-03-10 08:18:00,33.0,27.5,30.16,NNW,329,0.0,0.0,80,0.00,,,0.00,LWC V2.11 B50,2013-03-10 14:18:00,
2013-03-10 08:23:00,33.2,27.7,30.17,NW,318,1.0,1.0,80,0.00,,,0.00,LWC V2.11 B50,2013-03-10 14:23:00,
2013-03-10 08:28:00,33.3,27.8,30.17,NW,322,0.0,0.0,80,0.00,,,0.00,LWC V2.11 B50,2013-03-10 14:28:00,
2013-03-10 08:33:00,33.4,27.9,30.17,NW,323,0.0,0.0,80,0.00,,,0.00,LWC V2.11 B50,2013-03-10 14:33:00,
2013-03-10 08:38:00,33.6,27.8,30.17,North,5,0.0,2.0,79,0.00,,,0.00,LWC V2.11 B50,2013-03-10 14:38:00,
2013-03-10 08:43:00,33.7,27.6,30.17,NNE,19,0.0,2.0,78,0.00,,,0.00,LWC V2.11 B50,2013-03-10 14:43:00,
2013-03-10 08:48:00,33.9,27.8,30.17,North,5,0.0,1.0,78,0.00,,,0.00,LWC V2.11 B50,2013-03-10 14:48:00,
2013-03-10 08:53:00,34.0,27.9,30.17,North,11,0.0,1.0,78,0.00,,,0.00,LWC V2.11 B50,2013-03-10 14:53:00,
2013-03-10 08:58:00,34.1,28.0,30.17,North,11,0.0,0.0,78,0.00,,,0.00,LWC V2.11 B50,2013-03-10 14:58:00,
2013-03-10 09:02:00,34.2,27.8,30.18,NNW,334,0.0,0.0,77,0.00,,,0.00,LWC V2.11 B50,2013-03-10 15:02:00,
2013-03-10 09:07:00,34.4,28.3,30.17,NNW,343,0.0,0.0,78,0.00,,,0.00,LWC V2.11 B50,2013-03-10 15:07:00,
2013-03-10 09:12:00,34.6,28.1,30.17,NNW,343,0.0,0.0,77,0.00,,,0.00,LWC V2.11 B50,2013-03-10 15:12:00,
2013-03-10 09:17:00,34.7,27.9,30.18,NNW,343,0.0,0.0,76,0.00,,,0.00,LWC V2.11 B50,2013-03-10 15:17:00,
2013-03-10 09:22:00,34.9,28.1,30.18,NNW,343,0.0,0.0,76,0.00,,,0.00,LWC V2.11 B50,2013-03-10 15:22:00,
2013-03-10 09:27:00,35.2,28.1,30.18,NNW,343,0.0,0.0,75,0.00,,,0.00,LWC V2.11 B50,2013-03-10 15:27:00,
2013-03-10 09:32:00,35.5,28.4,30.18,NNW,343,0.0,0.0,75,0.00,,,0.00,LWC V2.11 B50,2013-03-10 15:32:00,
2013-03-10 09:37:00,35.8,28.7,30.18,NNW,347,0.0,0.0,75,0.00,,,0.00,LWC V2.11 B50,2013-03-10 15:37:00,
2013-03-10 09:42:00,36.2,28.4,30.18,NNE,13,0.0,0.0,73,0.00,,,0.00,LWC V2.11 B50,2013-03-10 15:42:00,
2013-03-10 09:47:00,36.5,28.7,30.18,NNE,13,0.0,0.0,73,0.00,,,0.00,LWC V2.11 B50,2013-03-10 15:47:00,
2013-03-10 09:52:00,36.8,28.3,30.18,NNE,13,0.0,0.0,71,0.00,,,0.00,LWC V2.11 B50,2013-03-10 15:52:00,
2013-03-10 09:57:00,37.1,28.6,30.18,SE,132,0.0,1.0,71,0.00,,,0.00,LWC V2.11 B50,2013-03-10 15:57:00,
2013-03-10 10:02:00,37.3,28.4,30.18,ESE,117,0.0,1.0,70,0.00,,,0.00,LWC V2.11 B50,2013-03-10 16:02:00,
2013-03-10 10:07:00,37.4,28.5,30.18,ENE,63,1.0,1.0,70,0.00,,,0.00,LWC V2.11 B50,2013-03-10 16:07:00,
2013-03-10 10:12:00,37.8,28.6,30.18,ENE,63,0.0,0.0,69,0.00,,,0.00,LWC V2.11 B50,2013-03-10 16:12:00,
2013-03-10 10:17:00,38.2,28.6,30.18,SE,126,0.0,1.0,68,0.00,,,0.00,LWC V2.11 B50,2013-03-10 16:17:00,
2013-03-10 10:22:00,38.6,28.6,30.19,ENE,78,1.0,1.0,67,0.00,,,0.00,LWC V2.11 B50,2013-03-10 16:22:00,
2013-03-10 10:27:00,39.0,28.6,30.19,SSE,154,0.0,2.0,66,0.00,,,0.00,LWC V2.11 B50,2013-03-10 16:27:00,
2013-03-10 10:32:00,39.3,28.5,30.19,East,93,1.0,1.0,65,0.00,,,0.00,LWC V2.11 B50,2013-03-10 16:32:00,
2013-03-10 10:37:00,39.4,28.6,30.19,East,86,1.0,1.0,65,0.00,,,0.00,LWC V2.11 B50,2013-03-10 16:37:00,
2013-03-10 10:42:00,39.6,28.8,30.19,East,90,0.0,1.0,65,0.00,,,0.00,LWC V2.11 B50,2013-03-10 16:42:00,
2013-03-10 10:47:00,39.8,29.0,30.18,ESE,117,0.0,1.0,65,0.00,,,0.00,LWC V2.11 B50,2013-03-10 16:47:00,
2013-03-10 10:52:00,40.1,29.3,30.18,ENE,76,0.0,4.0,65,0.00,,,0.00,LWC V2.11 B50,2013-03-10 16:52:00,
2013-03-10 10:57:00,40.8,30.0,30.18,ENE,71,1.0,2.0,65,0.00,,,0.00,LWC V2.11 B50,2013-03-10 16:57:00,
2013-03-10 11:02:00,41.9,30.2,30.18,NE,38,0.0,3.0,63,0.00,,,0.00,LWC V2.11 B50,2013-03-10 17:02:00,
2013-03-10 11:07:00,42.9,30.0,30.18,NNE,31,1.0,5.0,60,0.00,,,0.00,LWC V2.11 B50,2013-03-10 17:07:00,
2013-03-10 11:12:00,43.1,29.3,30.18,NE,51,2.0,8.0,58,0.00,,,0.00,LWC V2.11 B50,2013-03-10 17:12:00,
2013-03-10 11:17:00,43.1,29.3,30.19,North,0,3.0,7.0,58,0.00,,,0.00,LWC V2.11 B50,2013-03-10 17:17:00,
2013-03-10 11:22:00,43.2,29.4,30.19,NNE,28,1.0,5.0,58,0.00,,,0.00,LWC V2.11 B50,2013-03-10 17:22:00,
2013-03-10 11:27:00,43.7,29.5,30.19,NE,48,3.0,5.0,57,0.00,,,0.00,LWC V2.11 B50,2013-03-10 17:27:00,
2013-03-10 11:32:00,44.1,29.0,30.19,NE,51,2.0,9.0,55,0.00,,,0.00,LWC V2.11 B50,2013-03-10 17:32:00,
2013-03-10 11:37:00,44.3,28.7,30.18,ENE,61,7.0,8.0,54,0.00,,,0.00,LWC V2.11 B50,2013-03-10 17:37:00,
2013-03-10 11:42:00,44.4,28.8,30.18,NNE,22,1.0,6.0,54,0.00,,,0.00,LWC V2.11 B50,2013-03-10 17:42:00,
2013-03-10 11:47:00,45.2,28.6,30.18,NNE,32,4.0,7.0,52,0.00,,,0.00,LWC V2.11 B50,2013-03-10 17:47:00,
2013-03-10 11:52:00,45.4,28.3,30.18,NE,35,3.0,7.0,51,0.00,,,0.00,LWC V2.11 B50,2013-03-10 17:52:00,
2013-03-10 11:57:00,45.5,28.4,30.19,NNE,15,0.0,5.0,51,0.00,,,0.00,LWC V2.11 B50,2013-03-10 17:57:00,
2013-03-10 12:02:00,45.1,28.1,30.18,NE,56,2.0,5.0,51,0.00,,,0.00,LWC V2.11 B50,2013-03-10 18:02:00,
2013-03-10 12:07:00,45.9,28.8,30.18,ENE,67,1.0,9.0,51,0.00,,,0.00,LWC V2.11 B50,2013-03-10 18:07:00,
2013-03-10 12:12:00,46.2,28.1,30.18,NNE,25,3.0,7.0,49,0.00,,,0.00,LWC V2.11 B50,2013-03-10 18:12:00,
2013-03-10 12:17:00,45.8,28.2,30.18,ENE,74,5.0,11.0,50,0.00,,,0.00,LWC V2.11 B50,2013-03-10 18:17:00,
2013-03-10 12:22:00,45.1,28.5,30.18,NE,44,1.0,7.0,52,0.00,,,0.00,LWC V2.11 B50,2013-03-10 18:22:00,
2013-03-10 12:27:00,44.8,28.3,30.18,NE,51,2.0,5.0,52,0.00,,,0.00,LWC V2.11 B50,2013-03-10 18:27:00,
2013-03-10 12:32:00,44.8,28.7,30.18,NE,44,0.0,5.0,53,0.00,,,0.00,LWC V2.11 B50,2013-03-10 18:32:00,
2013-03-10 12:37:00,45.8,29.2,30.18,NNE,31,3.0,6.0,52,0.00,,,0.00,LWC V2.11 B50,2013-03-10 18:37:00,
2013-03-10 12:42:00,46.8,29.6,30.18,NE,49,1.0,7.0,51,0.00,,,0.00,LWC V2.11 B50,2013-03-10 18:42:00,
2013-03-10 12:47:00,47.2,29.0,30.17,ENE,57,5.0,5.0,49,0.00,,,0.00,LWC V2.11 B50,2013-03-10 18:47:00,
2013-03-10 12:52:00,47.2,28.5,30.17,ENE,74,0.0,3.0,48,0.00,,,0.00,LWC V2.11 B50,2013-03-10 18:52:00,
2013-03-10 12:57:00,46.9,28.2,30.17,NNE,25,0.0,2.0,48,0.00,,,0.00,LWC V2.11 B50,2013-03-10 18:57:00,
2013-03-10 13:02:00,46.6,28.5,30.17,East,96,0.0,5.0,49,0.00,,,0.00,LWC V2.11 B50,2013-03-10 19:02:00,
2013-03-10 13:07:00,46.6,28.0,30.17,NNE,19,0.0,4.0,48,0.00,,,0.00,LWC V2.11 B50,2013-03-10 19:07:00,
2013-03-10 13:12:00,46.7,28.6,30.17,NW,306,0.0,5.0,49,0.00,,,0.00,LWC V2.11 B50,2013-03-10 19:12:00,
2013-03-10 13:17:00,47.2,28.0,30.17,North,0,0.0,4.0,47,0.00,,,0.00,LWC V2.11 B50,2013-03-10 19:17:00,
2013-03-10 13:22:00,47.1,28.9,30.16,ESE,119,3.0,5.0,49,0.00,,,0.00,LWC V2.11 B50,2013-03-10 19:22:00,
2013-03-10 13:27:00,47.0,28.3,30.16,NNW,336,2.0,4.0,48,0.00,,,0.00,LWC V2.11 B50,2013-03-10 19:27:00,
2013-03-10 13:32:00,47.2,28.0,30.16,East,84,6.0,6.0,47,0.00,,,0.00,LWC V2.11 B50,2013-03-10 19:32:00,
2013-03-10 13:37:00,47.9,27.6,30.16,ENE,70,4.0,4.0,45,0.00,,,0.00,LWC V2.11 B50,2013-03-10 19:37:00,
2013-03-10 13:42:00,48.2,27.9,30.16,NNW,337,0.0,0.0,45,0.00,,,0.00,LWC V2.11 B50,2013-03-10 19:42:00,
2013-03-10 13:46:00,48.7,28.3,30.15,NNE,12,4.0,4.0,45,0.00,,,0.00,LWC V2.11 B50,2013-03-10 19:46:00,
2013-03-10 13:51:00,49.2,27.7,30.15,NNW,339,0.0,5.0,43,0.00,,,0.00,LWC V2.11 B50,2013-03-10 19:51:00,
2013-03-10 13:56:00,49.5,27.9,30.15,ENE,78,4.0,4.0,43,0.00,,,0.00,LWC V2.11 B50,2013-03-10 19:56:00,
2013-03-10 14:01:00,50.0,26.6,30.15,NW,306,1.0,4.0,40,0.00,,,0.00,LWC V2.11 B50,2013-03-10 20:01:00,
2013-03-10 14:06:00,49.9,26.5,30.15,NW,309,0.0,2.0,40,0.00,,,0.00,LWC V2.11 B50,2013-03-10 20:06:00,
2013-03-10 14:08:00,50.0,27.2,30.15,WNW,289,2.0,3.0,41,0.00,,,0.00,LWC V2.11 B50,2013-03-10 20:08:00,
2013-03-10 14:11:00,49.9,27.1,30.15,WNW,302,1.0,2.0,41,0.00,,,0.00,LWC V2.11 B50,2013-03-10 20:11:00,
2013-03-10 14:16:00,50.2,26.8,30.14,South,173,0.0,3.0,40,0.00,,,0.00,LWC V2.11 B50,2013-03-10 20:16:00,
2013-03-10 14:21:00,50.4,27.0,30.14,ESE,108,0.0,2.0,40,0.00,,,0.00,LWC V2.11 B50,2013-03-10 20:21:00,
2013-03-10 14:26:00,50.7,27.3,30.14,NE,42,1.0,1.0,40,0.00,,,0.00,LWC V2.11 B50,2013-03-10 20:26:00,
2013-03-10 14:31:00,50.8,26.1,30.13,East,90,0.0,9.0,38,0.00,,,0.00,LWC V2.11 B50,2013-03-10 20:31:00,
2013-03-10 14:36:00,50.8,26.1,30.13,NNW,343,0.0,0.0,38,0.00,,,0.00,LWC V2.11 B50,2013-03-10 20:36:00,
2013-03-10 14:41:00,51.3,25.3,30.13,NE,51,0.0,5.0,36,0.00,,,0.00,LWC V2.11 B50,2013-03-10 20:41:00,
2013-03-10 14:43:00,51.4,25.4,30.12,NE,46,0.0,7.0,36,0.00,,,0.00,LWC V2.11 B50,2013-03-10 20:43:00,
2013-03-10 14:48:00,51.4,24.0,30.12,NE,49,4.0,6.0,34,0.00,,,0.00,LWC V2.11 B50,2013-03-10 20:48:00,
2013-03-10 14:51:00,51.3,23.9,30.12,NW,311,4.0,4.0,34,0.00,,,0.00,LWC V2.11 B50,2013-03-10 20:51:00,
2013-03-10 14:56:00,52.1,23.9,30.12,NNW,334,6.0,7.0,33,0.00,,,0.00,LWC V2.11 B50,2013-03-10 20:56:00,
2013-03-10 15:01:00,52.2,23.2,30.12,West,273,0.0,4.0,32,0.00,,,0.00,LWC V2.11 B50,2013-03-10 21:01:00,
2013-03-10 15:06:00,52.4,24.2,30.12,NW,304,2.0,2.0,33,0.00,,,0.00,LWC V2.11 B50,2013-03-10 21:06:00,
2013-03-10 15:11:00,52.9,22.3,30.13,NW,309,3.0,7.0,30,0.00,,,0.00,LWC V2.11 B50,2013-03-10 21:11:00,
2013-03-10 15:16:00,52.9,21.5,30.13,NNW,342,0.0,9.0,29,0.00,,,0.00,LWC V2.11 B50,2013-03-10 21:16:00,
2013-03-10 15:21:00,53.1,22.5,30.13,WNW,294,5.0,11.0,30,0.00,,,0.00,LWC V2.11 B50,2013-03-10 21:21:00,
2013-03-10 15:26:00,52.6,21.3,30.13,NNW,337,6.0,14.0,29,0.00,,,0.00,LWC V2.11 B50,2013-03-10 21:26:00,
2013-03-10 15:31:00,52.5,21.2,30.13,NNE,27,0.0,8.0,29,0.00,,,0.00,LWC V2.11 B50,2013-03-10 21:31:00,
2013-03-10 15:36:00,52.7,18.8,30.13,NW,311,7.0,12.0,26,0.00,,,0.00,LWC V2.11 B50,2013-03-10 21:36:00,
2013-03-10 15:41:00,52.6,21.3,30.14,WSW,243,7.0,13.0,29,0.00,,,0.00,LWC V2.11 B50,2013-03-10 21:41:00,
2013-03-10 15:46:00,52.5,21.2,30.13,NNE,29,1.0,5.0,29,0.00,,,0.00,LWC V2.11 B50,2013-03-10 21:46:00,
2013-03-10 15:51:00,53.0,21.6,30.13,SW,225,5.0,11.0,29,0.00,,,0.00,LWC V2.11 B50,2013-03-10 21:51:00,
2013-03-10 15:56:00,53.2,22.6,30.13,WNW,296,4.0,6.0,30,0.00,,,0.00,LWC V2.11 B50,2013-03-10 21:56:00,
2013-03-10 16:01:00,53.1,20.9,30.13,NW,308,10.0,11.0,28,0.00,,,0.00,LWC V2.11 B50,2013-03-10 22:01:00,
2013-03-10 16:06:00,52.6,21.3,30.13,NW,305,2.0,17.0,29,0.00,,,0.00,LWC V2.11 B50,2013-03-10 22:06:00,
2013-03-10 16:12:00,52.8,19.8,30.13,NE,51,5.0,8.0,27,0.00,,,0.00,LWC V2.11 B50,2013-03-10 22:12:00,
2013-03-10 16:17:00,53.2,20.1,30.13,NNE,31,6.0,11.0,27,0.00,,,0.00,LWC V2.11 B50,2013-03-10 22:17:00,
2013-03-10 16:21:00,53.1,20.0,30.13,NW,323,3.0,7.0,27,0.00,,,0.00,LWC V2.11 B50,2013-03-10 22:21:00,
2013-03-10 16:26:00,53.2,20.1,30.13,North,11,4.0,11.0,27,0.00,,,0.00,LWC V2.11 B50,2013-03-10 22:26:00,
2013-03-10 16:31:00,53.2,19.2,30.13,NNW,332,2.0,6.0,26,0.00,,,0.00,LWC V2.11 B50,2013-03-10 22:31:00,
2013-03-10 16:36:00,53.2,20.1,30.13,NW,323,3.0,10.0,27,0.00,,,0.00,LWC V2.11 B50,2013-03-10 22:36:00,
2013-03-10 16:41:00,53.2,20.1,30.13,NW,323,1.0,12.0,27,0.00,,,0.00,LWC V2.11 B50,2013-03-10 22:41:00,
2013-03-10 16:46:00,53.1,20.9,30.13,West,273,4.0,4.0,28,0.00,,,0.00,LWC V2.11 B50,2013-03-10 22:46:00,
2013-03-10 16:51:00,53.1,20.0,30.12,WNW,289,7.0,11.0,27,0.00,,,0.00,LWC V2.11 B50,2013-03-10 22:51:00,
2013-03-10 16:56:00,53.1,20.0,30.12,NW,306,8.0,8.0,27,0.00,,,0.00,LWC V2.11 B50,2013-03-10 22:56:00,
2013-03-10 17:01:00,53.0,20.8,30.12,NW,312,3.0,10.0,28,0.00,,,0.00,LWC V2.11 B50,2013-03-10 23:01:00,
2013-03-10 17:02:00,53.0,20.8,30.12,WNW,282,2.0,10.0,28,0.00,,,0.00,LWC V2.11 B50,2013-03-10 23:02:00,
2013-03-10 17:06:00,53.1,19.1,30.11,WNW,296,5.0,11.0,26,0.00,,,0.00,LWC V2.11 B50,2013-03-10 23:06:00,
2013-03-10 17:11:00,53.0,19.9,30.11,NW,309,5.0,5.0,27,0.00,,,0.00,LWC V2.11 B50,2013-03-10 23:11:00,
2013-03-10 17:16:00,52.9,19.8,30.11,West,261,7.0,17.0,27,0.00,,,0.00,LWC V2.11 B50,2013-03-10 23:16:00,
2013-03-10 17:21:00,52.8,19.8,30.11,NNW,327,7.0,13.0,27,0.00,,,0.00,LWC V2.11 B50,2013-03-10 23:21:00,
2013-03-10 17:26:00,52.8,19.8,30.11,NNW,332,8.0,12.0,27,0.00,,,0.00,LWC V2.11 B50,2013-03-10 23:26:00,
2013-03-10 17:31:00,52.8,19.8,30.11,WNW,294,2.0,11.0,27,0.00,,,0.00,LWC V2.11 B50,2013-03-10 23:31:00,
2013-03-10 17:36:00,52.8,18.0,30.11,West,277,1.0,10.0,25,0.00,,,0.00,LWC V2.11 B50,2013-03-10 23:36:00,
2013-03-10 17:41:00,52.9,18.1,30.11,ENE,68,5.0,8.0,25,0.00,,,0.00,LWC V2.11 B50,2013-03-10 23:41:00,
2013-03-10 17:46:00,52.7,18.8,30.11,West,259,1.0,5.0,26,0.00,,,0.00,LWC V2.11 B50,2013-03-10 23:46:00,
2013-03-10 17:51:00,52.7,18.8,30.11,WNW,295,2.0,4.0,26,0.00,,,0.00,LWC V2.11 B50,2013-03-10 23:51:00,
2013-03-10 17:56:00,52.7,19.7,30.11,NNE,30,3.0,7.0,27,0.00,,,0.00,LWC V2.11 B50,2013-03-10 23:56:00,
2013-03-10 18:01:00,52.7,19.7,30.11,NW,310,2.0,7.0,27,0.00,,,0.00,LWC V2.11 B50,2013-03-11 00:01:00,
2013-03-10 18:06:00,52.6,19.6,30.11,WNW,298,6.0,10.0,27,0.00,,,0.00,LWC V2.11 B50,2013-03-11 00:06:00,
2013-03-10 18:11:00,52.3,21.0,30.11,NW,317,3.0,11.0,29,0.00,,,0.00,LWC V2.11 B50,2013-03-11 00:11:00,
2013-03-10 18:16:00,51.9,20.7,30.11,NNE,20,2.0,11.0,29,0.00,,,0.00,LWC V2.11 B50,2013-03-11 00:16:00,
2013-03-10 18:21:00,51.6,21.2,30.12,North,355,2.0,8.0,30,0.00,,,0.00,LWC V2.11 B50,2013-03-11 00:21:00,
2013-03-10 18:26:00,51.4,21.0,30.12,NNW,335,4.0,6.0,30,0.00,,,0.00,LWC V2.11 B50,2013-03-11 00:26:00,
2013-03-10 18:31:00,51.3,20.9,30.12,ESE,106,1.0,5.0,30,0.00,,,0.00,LWC V2.11 B50,2013-03-11 00:31:00,
2013-03-10 18:36:00,51.1,20.0,30.12,NW,321,2.0,6.0,29,0.00,,,0.00,LWC V2.11 B50,2013-03-11 00:36:00,
2013-03-10 18:41:00,50.9,19.0,30.12,NNW,333,0.0,5.0,28,0.00,,,0.00,LWC V2.11 B50,2013-03-11 00:41:00,
2013-03-10 18:46:00,50.6,19.5,30.12,NW,321,5.0,5.0,29,0.00,,,0.00,LWC V2.11 B50,2013-03-11 00:46:00,
2013-03-10 18:51:00,50.4,20.1,30.12,North,0,3.0,11.0,30,0.00,,,0.00,LWC V2.11 B50,2013-03-11 00:51:00,
2013-03-10 18:56:00,50.3,20.1,30.13,NW,307,2.0,6.0,30,0.00,,,0.00,LWC V2.11 B50,2013-03-11 00:56:00,
2013-03-10 19:01:00,50.1,19.9,30.13,NNW,328,2.0,5.0,30,0.00,,,0.00,LWC V2.11 B50,2013-03-11 01:01:00,
2013-03-10 19:06:00,49.9,19.7,30.13,SW,234,0.0,1.0,30,0.00,,,0.00,LWC V2.11 B50,2013-03-11 01:06:00,
2013-03-10 19:11:00,49.6,19.5,30.14,NNW,346,0.0,2.0,30,0.00,,,0.00,LWC V2.11 B50,2013-03-11 01:11:00,
2013-03-10 19:16:00,49.4,19.3,30.14,NW,304,2.0,3.0,30,0.00,,,0.00,LWC V2.11 B50,2013-03-11 01:16:00,
2013-03-10 19:21:00,49.1,19.0,30.14,NNE,24,0.0,6.0,30,0.00,,,0.00,LWC V2.11 B50,2013-03-11 01:21:00,
2013-03-10 19:26:00,48.9,18.8,30.14,NW,307,0.0,2.0,30,0.00,,,0.00,LWC V2.11 B50,2013-03-11 01:26:00,
2013-03-10 19:31:00,48.5,16.1,30.14,NW,317,1.0,5.0,27,0.00,,,0.00,LWC V2.11 B50,2013-03-11 01:31:00,
2013-03-10 19:36:00,48.3,15.0,30.15,West,275,1.0,4.0,26,0.00,,,0.00,LWC V2.11 B50,2013-03-11 01:36:00,
2013-03-10 19:41:00,48.1,14.0,30.15,NNW,338,4.0,5.0,25,0.00,,,0.00,LWC V2.11 B50,2013-03-11 01:41:00,
2013-03-10 19:46:00,47.9,13.8,30.15,NW,325,2.0,6.0,25,0.00,,,0.00,LWC V2.11 B50,2013-03-11 01:46:00,
2013-03-10 19:51:00,47.6,13.5,30.16,NW,310,0.0,5.0,25,0.00,,,0.00,LWC V2.11 B50,2013-03-11 01:51:00,
2013-03-10 19:56:00,47.0,13.9,30.16,NW,315,5.0,8.0,26,0.00,,,0.00,LWC V2.11 B50,2013-03-11 01:56:00,
2013-03-10 20:01:00,46.5,13.5,30.16,West,279,2.0,6.0,26,0.00,,,0.00,LWC V2.11 B50,2013-03-11 02:01:00,
2013-03-10 20:06:00,46.2,13.2,30.16,NW,323,5.0,7.0,26,0.00,,,0.00,LWC V2.11 B50,2013-03-11 02:06:00,
2013-03-10 20:11:00,46.2,13.2,30.17,WNW,284,7.0,9.0,26,0.00,,,0.00,LWC V2.11 B50,2013-03-11 02:11:00,
2013-03-10 20:16:00,46.3,13.3,30.17,WNW,290,3.0,5.0,26,0.00,,,0.00,LWC V2.11 B50,2013-03-11 02:16:00,
2013-03-10 20:21:00,46.2,14.1,30.17,NW,312,4.0,5.0,27,0.00,,,0.00,LWC V2.11 B50,2013-03-11 02:21:00,
2013-03-10 20:26:00,45.8,13.7,30.17,NW,321,7.0,8.0,27,0.00,,,0.00,LWC V2.11 B50,2013-03-11 02:26:00,
2013-03-10 20:31:00,45.3,14.1,30.18,West,277,4.0,7.0,28,0.00,,,0.00,LWC V2.11 B50,2013-03-11 02:31:00,
2013-03-10 20:36:00,45.2,14.1,30.18,NNW,335,4.0,10.0,28,0.00,,,0.00,LWC V2.11 B50,2013-03-11 02:36:00,
2013-03-10 20:42:00,45.2,14.9,30.18,WNW,297,1.0,10.0,29,0.00,,,0.00,LWC V2.11 B50,2013-03-11 02:42:00,
2013-03-10 20:46:00,45.2,14.9,30.18,WNW,284,5.0,6.0,29,0.00,,,0.00,LWC V2.11 B50,2013-03-11 02:46:00,
2013-03-10 20:51:00,45.0,15.5,30.18,WNW,302,4.0,7.0,30,0.00,,,0.00,LWC V2.11 B50,2013-03-11 02:51:00,
2013-03-10 20:56:00,44.7,15.2,30.18,NW,315,1.0,4.0,30,0.00,,,0.00,LWC V2.11 B50,2013-03-11 02:56:00,
2013-03-10 21:01:00,44.5,15.8,30.18,WNW,289,2.0,4.0,31,0.00,,,0.00,LWC V2.11 B50,2013-03-11 03:01:00,
2013-03-10 21:06:00,44.3,15.6,30.19,WNW,290,2.0,2.0,31,0.00,,,0.00,LWC V2.11 B50,2013-03-11 03:06:00,
2013-03-10 21:11:00,44.1,16.1,30.19,West,277,0.0,4.0,32,0.00,,,0.00,LWC V2.11 B50,2013-03-11 03:11:00,
2013-03-10 21:16:00,43.8,15.9,30.19,NW,322,2.0,5.0,32,0.00,,,0.00,LWC V2.11 B50,2013-03-11 03:16:00,
2013-03-10 21:21:00,43.6,16.4,30.20,West,278,2.0,6.0,33,0.00,,,0.00,LWC V2.11 B50,2013-03-11 03:21:00,
2013-03-10 21:26:00,43.4,16.2,30.20,West,278,3.0,5.0,33,0.00,,,0.00,LWC V2.11 B50,2013-03-11 03:26:00,
2013-03-10 21:31:00,42.9,16.5,30.20,NW,307,1.0,5.0,34,0.00,,,0.00,LWC V2.11 B50,2013-03-11 03:31:00,
2013-03-10 21:36:00,42.9,16.5,30.20,West,271,3.0,7.0,34,0.00,,,0.00,LWC V2.11 B50,2013-03-11 03:36:00,
2013-03-10 21:41:00,43.1,16.7,30.20,NW,314,2.0,8.0,34,0.00,,,0.00,LWC V2.11 B50,2013-03-11 03:41:00,
2013-03-10 21:46:00,42.9,16.5,30.20,WNW,284,1.0,5.0,34,0.00,,,0.00,LWC V2.11 B50,2013-03-11 03:46:00,
2013-03-10 21:51:00,42.8,16.4,30.20,NW,309,2.0,4.0,34,0.00,,,0.00,LWC V2.11 B50,2013-03-11 03:51:00,
2013-03-10 21:56:00,43.2,16.8,30.20,NW,309,3.0,3.0,34,0.00,,,0.00,LWC V2.11 B50,2013-03-11 03:56:00,
2013-03-10 22:00:00,43.5,17.0,30.20,WNW,300,4.0,8.0,34,0.00,,,0.00,LWC V2.11 B50,2013-03-11 04:00:00,
2013-03-10 22:01:00,43.6,17.1,30.21,WNW,294,6.0,8.0,34,0.00,,,0.00,LWC V2.11 B50,2013-03-11 04:01:00,
2013-03-10 22:06:00,43.5,17.0,30.21,NW,313,5.0,7.0,34,0.00,,,0.00,LWC V2.11 B50,2013-03-11 04:06:00,
2013-03-10 22:11:00,43.3,16.8,30.20,WNW,292,2.0,7.0,34,0.00,,,0.00,LWC V2.11 B50,2013-03-11 04:11:00,
2013-03-10 22:16:00,43.2,17.4,30.20,NW,312,3.0,6.0,35,0.00,,,0.00,LWC V2.11 B50,2013-03-11 04:16:00,
2013-03-10 22:21:00,43.1,17.3,30.20,WNW,288,0.0,4.0,35,0.00,,,0.00,LWC V2.11 B50,2013-03-11 04:21:00,
2013-03-10 22:26:00,42.6,16.9,30.21,WNW,293,2.0,3.0,35,0.00,,,0.00,LWC V2.11 B50,2013-03-11 04:26:00,
2013-03-10 22:31:00,42.0,17.0,30.21,WNW,287,1.0,4.0,36,0.00,,,0.00,LWC V2.11 B50,2013-03-11 04:31:00,
2013-03-10 22:36:00,41.2,16.9,30.21,WNW,286,1.0,2.0,37,0.00,,,0.00,LWC V2.11 B50,2013-03-11 04:36:00,
2013-03-10 22:41:00,40.4,16.8,30.21,West,275,2.0,4.0,38,0.00,,,0.00,LWC V2.11 B50,2013-03-11 04:41:00,
2013-03-10 22:46:00,39.9,17.0,30.21,WNW,292,1.0,6.0,39,0.00,,,0.00,LWC V2.11 B50,2013-03-11 04:46:00,
2013-03-10 22:51:00,39.6,16.7,30.22,NNW,330,1.0,3.0,39,0.00,,,0.00,LWC V2.11 B50,2013-03-11 04:51:00,
2013-03-10 22:56:00,39.7,16.8,30.22,NW,309,1.0,2.0,39,0.00,,,0.00,LWC V2.11 B50,2013-03-11 04:56:00,
2013-03-10 23:01:00,39.8,16.9,30.22,NW,320,0.0,1.0,39,0.00,,,0.00,LWC V2.11 B50,2013-03-11 05:01:00,
2013-03-10 23:02:00,39.7,16.8,30.22,NW,316,0.0,1.0,39,0.00,,,0.00,LWC V2.11 B50,2013-03-11 05:02:00,
2013-03-10 23:07:00,39.5,17.2,30.22,NW,315,0.0,0.0,40,0.00,,,0.00,LWC V2.11 B50,2013-03-11 05:07:00,
2013-03-10 23:14:00,38.9,16.7,30.22,NW,315,0.0,0.0,40,0.00,,,0.00,LWC V2.11 B50,2013-03-11 05:14:00,
2013-03-10 23:16:00,38.6,17.0,30.22,NW,315,0.0,0.0,41,0.00,,,0.00,LWC V2.11 B50,2013-03-11 05:16:00,
2013-03-10 23:21:00,38.2,17.2,30.22,NW,315,0.0,0.0,42,0.00,,,0.00,LWC V2.11 B50,2013-03-11 05:21:00,
2013-03-10 23:26:00,37.9,16.9,30.22,NW,315,0.0,0.0,42,0.00,,,0.00,LWC V2.11 B50,2013-03-11 05:26:00,
2013-03-10 23:31:00,37.5,17.1,30.22,NW,315,0.0,0.0,43,0.00,,,0.00,LWC V2.11 B50,2013-03-11 05:31:00,
2013-03-10 23:36:00,37.3,16.9,30.22,WNW,302,0.0,1.0,43,0.00,,,0.00,LWC V2.11 B50,2013-03-11 05:36:00,
2013-03-10 23:41:00,36.9,17.0,30.22,West,276,0.0,0.0,44,0.00,,,0.00,LWC V2.11 B50,2013-03-11 05:41:00,
2013-03-10 23:46:00,36.5,16.7,30.22,West,276,0.0,0.0,44,0.00,,,0.00,LWC V2.11 B50,2013-03-11 05:46:00,
2013-03-10 23:51:00,36.1,16.8,30.22,West,276,0.0,0.0,45,0.00,,,0.00,LWC V2.11 B50,2013-03-11 05:51:00,
2013-03-10 23:56:00,35.7,17.0,30.22,NW,314,0.0,1.0,46,0.00,,,0.00,LWC V2.11 B50,2013-03-11 05:56:00,